Hamilton, Texas
Current Conditions -  °F | °C
As of 3:55 AM on Friday 28 Nov 2014 (Local Time) from KMNZ Reporting Station
Clear Clear  
Wind Chill: 34°   Ceiling: Unl
Heat Index: 39°   Visibility: 10mi
Dew Point: 32°   Wind: 8mph
Humidity: 75%   Direction: 180°S
Pressure: 30.29"   Gusts: NA
Location:  31.7°N, 98.12°W
Report Text: KMNZ 280955Z AUTO 18007KT 10SM CLR 04/00 A3029 RMK AO2 T00410000
Loading
Personal Weather Stations






























Interactive Weather Map New forecast layout! Learn more

10-Day Weather Forecast

Advertisements
Track Severe Weather on mobile